Time;durP1;ratioP1;P1;durP2;ratioP2;P2;SDS_P1;SDS_P2;PMS_P1;PMS_P2;Temp;Humidity;BMP_temperature;BMP_pressure;BME280_temperature;BME280_humidity;BME280_pressure;Samples;Min_cycle;Max_cycle;Signal;HPM_P1;HPM_P2
2022/10/31 00:01:33;;;;;;;15.10;2.30;;;15.30;99.90;;;;;;5028719;28;20033;-73
2022/10/31 00:03:59;;;;;;;14.40;2.00;;;15.20;99.90;;;;;;5027773;28;20083;-73
2022/10/31 00:06:25;;;;;;;16.30;2.63;;;15.20;99.90;;;;;;5028319;28;20108;-73
2022/10/31 00:08:56;;;;;;;17.00;2.28;;;15.20;99.90;;;;;;5033727;28;20033;-73
2022/10/31 00:11:22;;;;;;;12.75;2.88;;;15.10;99.90;;;;;;5026867;28;20084;-73
2022/10/31 00:13:48;;;;;;;13.88;2.40;;;15.00;99.90;;;;;;5027198;28;20433;-73
2022/10/31 00:16:19;;;;;;;17.38;2.47;;;15.00;99.90;;;;;;5027180;28;20048;-73
2022/10/31 00:18:49;;;;;;;13.90;1.85;;;15.00;99.90;;;;;;5027432;28;20030;-73
2022/10/31 00:21:15;;;;;;;;;;;14.90;99.90;;;;;;5026856;28;20030;-73
2022/10/31 00:23:40;;;;;;;16.52;2.80;;;14.90;99.90;;;;;;5026010;28;19908;-73
2022/10/31 00:26:06;;;;;;;13.93;3.08;;;14.90;99.90;;;;;;5027461;28;20476;-73
2022/10/31 00:28:33;;;;;;;15.55;2.28;;;14.90;99.90;;;;;;5027637;28;20057;-73
2022/10/31 00:31:03;;;;;;;15.15;3.30;;;14.90;99.90;;;;;;5027525;28;20038;-73
2022/10/31 00:33:29;;;;;;;14.07;2.30;;;15.00;99.90;;;;;;5027582;28;20041;-73
2022/10/31 00:35:55;;;;;;;12.18;1.83;;;15.00;99.90;;;;;;5025859;28;20029;-73
2022/10/31 00:38:21;;;;;;;17.60;2.75;;;15.10;99.90;;;;;;5027852;28;20039;-73
2022/10/31 00:40:46;;;;;;;12.57;1.92;;;15.00;99.90;;;;;;5027917;28;20396;-73
2022/10/31 00:43:12;;;;;;;13.90;2.20;;;15.00;99.90;;;;;;5027631;28;20396;-73
2022/10/31 00:45:37;;;;;;;19.38;2.78;;;15.00;99.90;;;;;;5026258;28;20025;-74
2022/10/31 00:48:04;;;;;;;20.67;2.17;;;15.00;99.90;;;;;;5027407;28;20071;-74
2022/10/31 00:50:30;;;;;;;15.50;2.08;;;15.00;99.90;;;;;;5026030;28;20176;-73
2022/10/31 00:52:56;;;;;;;17.27;2.17;;;15.00;99.90;;;;;;5014915;28;20109;-73
2022/10/31 00:55:22;;;;;;;14.82;2.60;;;15.00;99.90;;;;;;5015989;28;20705;-73
2022/10/31 00:57:48;;;;;;;18.50;2.50;;;15.00;99.90;;;;;;5018117;28;20029;-73
2022/10/31 01:00:14;;;;;;;14.05;2.28;;;15.00;99.90;;;;;;5013517;28;20049;-73
2022/10/31 01:02:39;;;;;;;16.40;2.28;;;15.00;99.90;;;;;;5011267;28;20034;-73
2022/10/31 01:05:05;;;;;;;15.70;2.20;;;14.90;99.90;;;;;;5022810;28;20052;-73
2022/10/31 01:07:31;;;;;;;17.15;2.80;;;14.90;99.90;;;;;;5024763;28;20033;-73
2022/10/31 01:09:56;;;;;;;13.27;2.17;;;14.90;99.90;;;;;;5026700;28;20713;-73
2022/10/31 01:12:22;;;;;;;18.25;2.65;;;14.90;99.90;;;;;;5025815;28;20057;-73
2022/10/31 01:14:48;;;;;;;17.40;2.67;;;14.80;99.90;;;;;;5027451;28;20559;-73
2022/10/31 01:17:14;;;;;;;13.02;2.15;;;14.90;99.90;;;;;;5025610;28;20021;-73
2022/10/31 01:19:40;;;;;;;15.57;2.75;;;14.90;99.90;;;;;;5027232;28;20034;-73
2022/10/31 01:22:06;;;;;;;16.02;2.90;;;14.90;99.90;;;;;;5024224;28;20033;-73
2022/10/31 01:24:31;;;;;;;18.75;2.30;;;14.90;99.90;;;;;;5025662;28;20411;-73
2022/10/31 01:26:57;;;;;;;18.50;2.40;;;14.90;99.90;;;;;;5027042;28;20029;-74
2022/10/31 01:29:23;;;;;;;20.80;2.53;;;14.90;99.90;;;;;;5027040;28;20040;-73
2022/10/31 01:31:48;;;;;;;22.55;2.80;;;14.80;99.90;;;;;;5026575;28;20037;-74
2022/10/31 01:34:16;;;;;;;15.45;3.10;;;14.80;99.90;;;;;;5026740;28;20040;-73
2022/10/31 01:36:44;;;;;;;17.30;2.47;;;14.80;99.90;;;;;;5025700;28;20392;-73
2022/10/31 01:39:14;;;;;;;14.80;2.38;;;14.80;99.90;;;;;;5028722;28;20484;-73
2022/10/31 01:41:43;;;;;;;15.77;2.63;;;14.80;99.90;;;;;;5046809;28;20133;-73
2022/10/31 01:44:14;;;;;;;19.98;2.70;;;14.80;99.90;;;;;;5046474;28;20076;-73
2022/10/31 01:46:43;;;;;;;18.35;2.13;;;14.90;99.90;;;;;;5045847;28;20060;-73
2022/10/31 01:49:13;;;;;;;15.93;2.42;;;14.90;99.90;;;;;;5046441;28;20624;-73
2022/10/31 01:51:42;;;;;;;21.88;3.05;;;14.80;99.90;;;;;;5026350;28;20042;-73
2022/10/31 01:54:12;;;;;;;17.73;2.80;;;14.80;99.90;;;;;;5026590;28;20041;-73
2022/10/31 01:56:40;;;;;;;18.67;2.72;;;14.80;99.90;;;;;;5025464;28;20274;-73
2022/10/31 01:59:10;;;;;;;12.50;2.00;;;14.80;99.90;;;;;;5026413;28;20037;-73
2022/10/31 02:01:36;;;;;;;14.48;2.50;;;14.70;99.90;;;;;;5035269;28;20048;-71
2022/10/31 02:04:02;;;;;;;14.13;2.83;;;14.70;99.90;;;;;;5010681;28;20041;-71
2022/10/31 02:06:31;;;;;;;12.52;2.42;;;14.70;99.90;;;;;;5013631;28;20037;-72
2022/10/31 02:08:59;;;;;;;13.65;2.22;;;14.80;99.90;;;;;;5017067;28;20384;-71
2022/10/31 02:11:27;;;;;;;15.63;2.17;;;14.80;99.90;;;;;;5012744;28;20034;-72
2022/10/31 02:13:53;;;;;;;16.00;2.08;;;14.80;99.90;;;;;;5009307;28;20689;-72
2022/10/31 02:16:19;;;;;;;16.13;2.65;;;14.80;99.90;;;;;;5014215;28;20529;-72
2022/10/31 02:18:44;;;;;;;13.43;2.30;;;14.80;99.90;;;;;;5010320;28;20105;-72
2022/10/31 02:21:13;;;;;;;11.77;2.00;;;14.70;99.90;;;;;;5007632;28;20042;-71
2022/10/31 02:23:48;;;;;;;16.67;2.22;;;14.70;99.90;;;;;;5012427;28;20109;-71
2022/10/31 02:26:52;;;;;;;18.17;2.10;;;14.70;99.90;;;;;;5019159;28;20109;-72
2022/10/31 02:29:39;;;;;;;14.35;2.10;;;14.70;99.90;;;;;;5013541;28;20052;-73
2022/10/31 02:32:19;;;;;;;22.27;2.78;;;14.70;99.90;;;;;;5005916;28;20412;-72
2022/10/31 02:34:59;;;;;;;14.27;1.98;;;14.70;99.90;;;;;;5033610;28;20040;-72
2022/10/31 02:37:45;;;;;;;12.90;2.00;;;14.60;99.90;;;;;;5023343;28;20037;-71
2022/10/31 02:40:30;;;;;;;17.65;2.63;;;14.60;99.90;;;;;;5012958;28;20041;-73
2022/10/31 02:43:12;;;;;;;14.70;2.10;;;14.50;99.90;;;;;;5022836;28;20021;-71
2022/10/31 02:45:45;;;;;;;18.92;2.40;;;14.60;99.90;;;;;;5032494;28;20602;-71
2022/10/31 02:48:19;;;;;;;15.13;1.95;;;14.50;99.90;;;;;;5019872;28;20030;-72
2022/10/31 02:50:52;;;;;;;18.13;2.30;;;14.50;99.90;;;;;;5010012;28;20559;-73
2022/10/31 02:53:18;;;;;;;19.27;3.15;;;14.50;99.90;;;;;;5010084;28;20104;-73
2022/10/31 02:56:06;;;;;;;22.70;2.90;;;14.60;99.90;;;;;;5016387;28;20026;-73
2022/10/31 02:58:37;;;;;;;15.63;2.63;;;14.60;99.90;;;;;;5034444;28;20543;-73
2022/10/31 03:01:21;;;;;;;23.13;3.40;;;14.60;99.90;;;;;;5019897;28;20044;-72
2022/10/31 03:03:54;;;;;;;20.75;2.75;;;14.60;99.90;;;;;;5025204;28;20165;-73
2022/10/31 03:06:35;;;;;;;20.35;2.75;;;14.60;99.90;;;;;;5010557;28;20140;-72
2022/10/31 03:09:31;;;;;;;15.38;2.50;;;14.60;99.90;;;;;;5009830;28;20034;-72
2022/10/31 03:12:11;;;;;;;13.30;2.28;;;14.70;99.90;;;;;;5020075;28;20152;-72
2022/10/31 03:14:59;;;;;;;13.45;2.65;;;14.60;99.90;;;;;;5022058;28;20073;-72
2022/10/31 03:17:40;;;;;;;12.85;1.75;;;14.60;99.90;;;;;;5009078;28;20079;-72
2022/10/31 03:20:08;;;;;;;14.75;2.20;;;14.60;99.90;;;;;;5015682;28;20030;-72
2022/10/31 03:22:38;;;;;;;13.98;2.35;;;14.60;99.90;;;;;;5020967;28;20116;-72
2022/10/31 03:25:05;;;;;;;15.10;2.20;;;14.60;99.90;;;;;;5028163;28;20816;-72
2022/10/31 03:27:34;;;;;;;16.17;2.20;;;14.60;99.90;;;;;;5008423;28;20547;-72
2022/10/31 03:30:04;;;;;;;14.40;2.67;;;14.60;99.90;;;;;;5023261;28;20033;-72
2022/10/31 03:32:41;;;;;;;17.05;2.45;;;14.60;99.90;;;;;;5027797;28;20041;-72
2022/10/31 03:35:09;;;;;;;15.70;2.50;;;14.60;99.90;;;;;;5026914;28;20036;-71
2022/10/31 03:37:39;;;;;;;13.98;2.53;;;14.50;99.90;;;;;;5027329;28;20567;-72
2022/10/31 03:40:08;;;;;;;11.57;2.28;;;14.60;99.90;;;;;;5027178;28;20029;-72
2022/10/31 03:42:38;;;;;;;16.45;2.58;;;14.60;99.90;;;;;;5028830;28;20045;-72
2022/10/31 03:45:14;;;;;;;14.75;1.83;;;14.60;99.90;;;;;;5027193;28;20040;-72
2022/10/31 03:47:41;;;;;;;17.15;2.42;;;14.50;99.90;;;;;;5028353;28;20046;-72
2022/10/31 03:50:09;;;;;;;13.25;2.22;;;14.50;99.90;;;;;;5028678;28;20030;-72
2022/10/31 03:52:54;;;;;;;17.40;2.40;;;14.50;99.90;;;;;;5028546;28;20187;-72
2022/10/31 03:55:36;;;;;;;13.82;1.80;;;14.50;99.90;;;;;;5028473;28;20040;-72
2022/10/31 03:58:18;;;;;;;12.65;2.03;;;14.50;99.90;;;;;;5028324;28;20435;-73
2022/10/31 04:00:46;;;;;;;13.48;1.92;;;14.50;99.90;;;;;;5028009;28;20033;-72
2022/10/31 04:03:26;;;;;;;14.57;2.40;;;14.50;99.90;;;;;;5027221;28;20045;-72
2022/10/31 04:05:56;;;;;;;14.32;1.83;;;14.50;99.90;;;;;;5032812;28;20025;-72
2022/10/31 04:08:26;;;;;;;;;;;14.60;99.90;;;;;;5047982;28;20086;-72
2022/10/31 04:10:54;;;;;;;12.23;1.83;;;14.60;99.90;;;;;;5048183;28;19921;-73
2022/10/31 04:13:26;;;;;;;20.75;2.85;;;14.50;99.90;;;;;;5041984;28;20045;-73
2022/10/31 04:15:54;;;;;;;16.33;2.33;;;14.50;99.90;;;;;;5027050;28;20116;-72
2022/10/31 04:18:21;;;;;;;9.95;1.63;;;14.50;99.90;;;;;;5026271;28;20635;-73
2022/10/31 04:20:50;;;;;;;9.77;1.73;;;14.50;99.90;;;;;;5024739;28;20097;-72
2022/10/31 04:23:26;;;;;;;14.43;2.05;;;14.50;99.90;;;;;;5017770;28;20033;-73
2022/10/31 04:25:51;;;;;;;18.20;2.25;;;14.50;99.90;;;;;;5011863;28;20026;-74
2022/10/31 04:28:17;;;;;;;12.68;2.00;;;14.50;99.90;;;;;;5019100;28;20553;-73
2022/10/31 04:30:43;;;;;;;14.13;2.17;;;14.50;99.90;;;;;;5026880;28;20044;-72
2022/10/31 04:33:08;;;;;;;13.02;2.22;;;14.50;99.90;;;;;;5025313;28;20442;-72
2022/10/31 04:35:34;;;;;;;13.95;1.92;;;14.50;99.90;;;;;;5027542;28;20033;-73
2022/10/31 04:37:59;;;;;;;9.05;1.33;;;14.50;99.90;;;;;;5027351;28;20034;-72
2022/10/31 04:40:25;;;;;;;15.07;2.85;;;14.50;99.90;;;;;;5027803;28;20033;-73
2022/10/31 04:42:50;;;;;;;20.20;2.33;;;14.50;99.90;;;;;;5027782;28;20041;-73
2022/10/31 04:45:16;;;;;;;14.07;2.60;;;14.50;99.90;;;;;;5027375;28;20037;-72
2022/10/31 04:47:41;;;;;;;13.82;1.90;;;14.40;99.90;;;;;;5026613;28;20038;-73
2022/10/31 04:50:07;;;;;;;13.65;2.15;;;14.40;99.90;;;;;;5027253;28;20068;-72
2022/10/31 04:52:42;;;;;;;14.00;1.92;;;14.40;99.90;;;;;;5027602;28;20392;-73
2022/10/31 04:55:08;;;;;;;16.60;2.55;;;14.40;99.90;;;;;;5027184;28;20095;-73
2022/10/31 04:57:47;;;;;;;17.45;2.08;;;14.50;99.90;;;;;;5026801;28;20029;-72
2022/10/31 05:00:15;;;;;;;12.55;2.05;;;14.50;99.90;;;;;;5026604;28;20705;-73
2022/10/31 05:02:59;;;;;;;11.73;2.20;;;14.50;99.90;;;;;;5027579;28;20041;-73
2022/10/31 05:05:29;;;;;;;18.20;2.95;;;14.50;99.90;;;;;;5026813;28;20025;-74
2022/10/31 05:07:55;;;;;;;15.52;2.15;;;14.40;99.90;;;;;;5026366;28;20072;-73
2022/10/31 05:10:27;;;;;;;17.77;2.42;;;14.40;99.90;;;;;;5025015;28;20037;-73
2022/10/31 05:12:59;;;;;;;17.70;2.65;;;14.40;99.90;;;;;;5025892;28;20036;-72
2022/10/31 05:15:26;;;;;;;15.98;2.70;;;14.40;99.90;;;;;;5025140;28;20037;-73
2022/10/31 05:17:52;;;;;;;14.70;2.47;;;14.40;99.90;;;;;;5027167;28;20036;-73
2022/10/31 05:20:20;;;;;;;15.85;2.42;;;14.40;99.90;;;;;;5027290;28;20140;-72
2022/10/31 05:22:48;;;;;;;15.52;2.17;;;14.30;99.90;;;;;;5026432;28;20041;-73
2022/10/31 05:25:14;;;;;;;18.95;2.67;;;14.30;99.90;;;;;;5026863;28;20128;-73
2022/10/31 05:27:41;;;;;;;13.07;2.10;;;14.30;99.90;;;;;;5024752;28;20037;-72
2022/10/31 05:30:08;;;;;;;14.35;2.33;;;14.30;99.90;;;;;;5018468;28;20034;-73
2022/10/31 05:32:38;;;;;;;17.67;2.83;;;14.30;99.90;;;;;;5007709;28;20065;-73
2022/10/31 05:35:04;;;;;;;14.90;1.95;;;14.20;99.90;;;;;;5036408;28;20037;-72
2022/10/31 05:37:30;;;;;;;13.57;1.90;;;14.10;99.90;;;;;;5022152;28;20037;-72
2022/10/31 05:39:55;;;;;;;14.45;1.92;;;14.10;99.90;;;;;;5013512;28;20040;-72
2022/10/31 05:42:21;;;;;;;16.80;2.08;;;14.10;99.90;;;;;;5041745;28;20033;-72
2022/10/31 05:44:46;;;;;;;13.88;2.17;;;14.10;99.90;;;;;;5020863;28;20040;-71
2022/10/31 05:47:12;;;;;;;14.00;2.10;;;14.00;99.90;;;;;;5007150;28;20121;-73
2022/10/31 05:49:37;;;;;;;12.20;2.10;;;14.00;99.90;;;;;;5015658;28;20072;-73
2022/10/31 05:52:03;;;;;;;14.70;2.25;;;14.00;99.90;;;;;;5025186;28;20407;-73
2022/10/31 05:54:29;;;;;;;13.95;2.13;;;13.90;99.90;;;;;;5026914;28;20068;-73
2022/10/31 05:56:54;;;;;;;12.23;2.30;;;14.00;99.90;;;;;;5025492;28;20030;-73
2022/10/31 05:59:20;;;;;;;14.43;1.92;;;13.90;99.90;;;;;;5027270;28;20042;-73
2022/10/31 06:01:45;;;;;;;17.92;2.28;;;13.90;99.90;;;;;;5026652;28;20037;-73
2022/10/31 06:04:11;;;;;;;14.60;2.45;;;13.90;99.90;;;;;;5025075;28;20517;-73
2022/10/31 06:06:37;;;;;;;16.45;2.20;;;13.90;99.90;;;;;;5027196;28;20168;-73
2022/10/31 06:09:02;;;;;;;15.60;2.53;;;13.90;99.90;;;;;;5044729;28;20114;-73
2022/10/31 06:11:28;;;;;;;16.13;2.67;;;13.80;99.90;;;;;;5047518;28;20041;-72
2022/10/31 06:13:53;;;;;;;19.55;2.75;;;13.70;99.90;;;;;;5029439;28;20029;-73
2022/10/31 06:16:19;;;;;;;14.45;2.30;;;13.50;99.90;;;;;;5030712;28;20034;-73
2022/10/31 06:18:45;;;;;;;11.90;1.98;;;13.40;99.90;;;;;;5029721;28;20823;-73
2022/10/31 06:21:11;;;;;;;19.02;2.83;;;13.30;99.90;;;;;;5029449;28;20499;-72
2022/10/31 06:23:37;;;;;;;16.77;2.33;;;13.10;99.90;;;;;;5028148;28;20076;-73
2022/10/31 06:26:02;;;;;;;13.38;1.85;;;13.00;99.90;;;;;;5030281;28;20554;-72
2022/10/31 06:28:28;;;;;;;19.20;3.22;;;12.90;99.90;;;;;;5029033;28;20092;-73
2022/10/31 06:30:53;;;;;;;43.42;18.92;;;12.90;99.90;;;;;;5028499;28;20064;-72
2022/10/31 06:33:19;;;;;;;47.67;20.35;;;12.80;99.90;;;;;;5028039;28;20030;-73
2022/10/31 06:35:46;;;;;;;30.23;11.43;;;12.70;99.90;;;;;;5029408;28;20038;-73
2022/10/31 06:38:12;;;;;;;24.98;7.22;;;12.60;99.90;;;;;;5029729;28;20725;-73
2022/10/31 06:40:38;;;;;;;20.45;3.65;;;12.60;99.90;;;;;;5028512;28;20033;-72
2022/10/31 06:43:03;;;;;;;15.02;2.40;;;12.60;99.90;;;;;;5027046;28;20033;-73
2022/10/31 06:45:29;;;;;;;13.48;2.42;;;12.60;99.90;;;;;;5029111;28;20088;-73
2022/10/31 06:47:56;;;;;;;13.57;2.22;;;12.60;99.90;;;;;;5028389;28;20026;-73
